| time (UTC) | temp C | wind direction | speed KPH | gust KPH | rain 1hr cm | rain 24hr cm | rain mn cm | humidity % | barometer mb |
| 20260510230525 | 23 | 218 | 6.4 | 11.3 | 0.00 | 0.05 | 0.00 | 89 | 1016.2 |
| 20260510225522 | 23 | 204 | 9.7 | 14.5 | 0.00 | 0.05 | 0.00 | 89 | 1016.1 |
| 20260510224522 | 23 | 209 | 11.3 | 14.5 | 0.00 | 0.05 | 0.00 | 89 | 1016.2 |
| 20260510223523 | 23 | 200 | 12.9 | 16.1 | 0.00 | 0.05 | 0.00 | 89 | 1016.3 |
| 20260510222526 | 23 | 196 | 11.3 | 14.5 | 0.00 | 0.05 | 0.00 | 89 | 1016.3 |
| 20260510221523 | 23 | 198 | 11.3 | 14.5 | 0.00 | 0.05 | 0.00 | 89 | 1016.4 |
| 20260510220613 | 23 | 193 | 12.9 | 14.5 | 0.00 | 0.05 | 0.00 | 89 | 1016.4 |
| 20260510215548 | 23 | 191 | 12.9 | 16.1 | 0.00 | 0.05 | 0.00 | 89 | 1016.2 |
| 20260510214523 | 23 | 189 | 11.3 | 16.1 | 0.00 | 0.05 | 0.00 | 88 | 1016.2 |
| 20260510213523 | 23 | 182 | 9.7 | 12.9 | 0.00 | 0.05 | 0.00 | 87 | 1016.2 |
| 20260510212543 | 23 | 176 | 9.7 | 12.9 | 0.00 | 0.05 | 0.00 | 87 | 1016.1 |
| 20260510211523 | 23 | 181 | 11.3 | 14.5 | 0.00 | 0.05 | 0.00 | 87 | 1016.2 |
| 20260510210534 | 23 | 175 | 9.7 | 12.9 | 0.00 | 0.05 | 0.00 | 88 | 1016.1 |
| 20260510205524 | 23 | 173 | 11.3 | 14.5 | 0.00 | 0.05 | 0.00 | 88 | 1016.3 |
| 20260510204524 | 23 | 176 | 12.9 | 17.7 | 0.00 | 0.05 | 0.00 | 87 | 1016.2 |
| 20260510203549 | 23 | 177 | 11.3 | 14.5 | 0.00 | 0.05 | 0.00 | 87 | 1016.2 |
| 20260510202524 | 22 | 169 | 11.3 | 16.1 | 0.00 | 0.05 | 0.00 | 87 | 1016.2 |
| 20260510201525 | 22 | 167 | 11.3 | 19.3 | 0.00 | 0.05 | 0.00 | 87 | 1016.2 |
| 20260510200551 | 22 | 168 | 11.3 | 16.1 | 0.00 | 0.05 | 0.00 | 87 | 1016.2 |
| 20260510195550 | 22 | 160 | 14.5 | 17.7 | 0.00 | 0.05 | 0.00 | 88 | 1016.2 |
| 20260510194550 | 22 | 159 | 14.5 | 17.7 | 0.00 | 0.05 | 0.00 | 88 | 1016.3 |
| 20260510193522 | 22 | 153 | 14.5 | 16.1 | 0.00 | 0.05 | 0.00 | 86 | 1016.4 |
| 20260510192525 | 22 | 155 | 12.9 | 16.1 | 0.00 | 0.05 | 0.00 | 86 | 1016.4 |
| 20260510191525 | 22 | 162 | 9.7 | 12.9 | 0.00 | 0.05 | 0.00 | 86 | 1016.6 |
| 20260510190525 | 22 | 158 | 11.3 | 16.1 | 0.00 | 0.05 | 0.00 | 87 | 1016.7 |
| 20260510185522 | 22 | 155 | 12.9 | 16.1 | 0.00 | 0.05 | 0.00 | 88 | 1016.7 |
| 20260510184523 | 22 | 160 | 12.9 | 16.1 | 0.00 | 0.05 | 0.00 | 88 | 1016.9 |
| 20260510183526 | 22 | 154 | 11.3 | 14.5 | 0.00 | 0.05 | 0.00 | 86 | 1016.9 |
| 20260510182526 | 22 | 160 | 11.3 | 16.1 | 0.00 | 0.05 | 0.00 | 87 | 1017.1 |
| 20260510181548 | 22 | 161 | 12.9 | 16.1 | 0.00 | 0.05 | 0.00 | 88 | 1017.2 |
| 20260510180523 | 22 | 153 | 12.9 | 16.1 | 0.00 | 0.05 | 0.00 | 87 | 1017.3 |
| 20260510175524 | 22 | 166 | 11.3 | 16.1 | 0.00 | 0.05 | 0.00 | 88 | 1017.3 |
| 20260510174444 | 22 | 167 | 12.9 | 17.7 | 0.00 | 0.08 | 0.00 | 88 | 1017.3 |
| 20260510173524 | 22 | 159 | 12.9 | 17.7 | 0.00 | 0.08 | 0.00 | 88 | 1017.2 |
| 20260510172524 | 22 | 148 | 16.1 | 17.7 | 0.00 | 0.08 | 0.00 | 88 | 1017.3 |
| 20260510171524 | 22 | 145 | 14.5 | 17.7 | 0.00 | 0.08 | 0.00 | 88 | 1017.2 |
| 20260510170549 | 22 | 135 | 12.9 | 14.5 | 0.00 | 0.08 | 0.00 | 89 | 1017.3 |
| 20260510165524 | 22 | 132 | 11.3 | 14.5 | 0.00 | 0.08 | 0.00 | 90 | 1017.3 |
| 20260510164549 | 22 | 138 | 11.3 | 16.1 | 0.00 | 0.10 | 0.00 | 89 | 1017.3 |
| 20260510163524 | 22 | 142 | 14.5 | 17.7 | 0.00 | 0.15 | 0.00 | 88 | 1017.3 |
| 20260510162525 | 22 | 128 | 14.5 | 17.7 | 0.00 | 0.33 | 0.00 | 84 | 1017.2 |
| 20260510161525 | 22 | 122 | 14.5 | 16.1 | 0.00 | 0.41 | 0.00 | 84 | 1017.2 |
| 20260510160446 | 22 | 114 | 14.5 | 16.1 | 0.00 | 0.56 | 0.00 | 86 | 1017.2 |
| 20260510155446 | 22 | 108 | 12.9 | 16.1 | 0.00 | 1.02 | 0.00 | 88 | 1017.2 |
| 20260510154525 | 22 | 109 | 14.5 | 17.7 | 0.00 | 1.24 | 0.00 | 87 | 1017.2 |
| 20260510153525 | 22 | 106 | 14.5 | 17.7 | 0.00 | 1.30 | 0.00 | 89 | 1017.3 |
| 20260510152522 | 22 | 110 | 14.5 | 17.7 | 0.00 | 1.68 | 0.00 | 90 | 1017.4 |
| 20260510151522 | 21 | 110 | 14.5 | 17.7 | 0.00 | 1.68 | 0.00 | 90 | 1017.2 |
| 20260510150526 | 21 | 110 | 14.5 | 16.1 | 0.00 | 1.68 | 0.00 | 91 | 1017.2 |
| 20260510145526 | 21 | 110 | 14.5 | 16.1 | 0.00 | 1.68 | 0.00 | 91 | 1017.2 |
| 20260510144523 | 21 | 111 | 12.9 | 16.1 | 0.00 | 1.68 | 0.00 | 91 | 1017.3 |
| 20260510143523 | 21 | 122 | 11.3 | 12.9 | 0.00 | 1.68 | 0.00 | 91 | 1017.4 |
| 20260510142523 | 22 | 126 | 8.0 | 11.3 | 0.00 | 1.68 | 0.00 | 90 | 1017.4 |
| 20260510141527 | 22 | 111 | 6.4 | 8.0 | 0.00 | 1.68 | 0.00 | 90 | 1017.4 |
| 20260510140523 | 21 | 92 | 6.4 | 8.0 | 0.00 | 1.68 | 0.00 | 92 | 1017.3 |
| 20260510135524 | 21 | 82 | 4.8 | 9.7 | 0.00 | 1.68 | 0.00 | 94 | 1017.3 |
| 20260510134549 | 21 | 79 | 6.4 | 16.1 | 0.00 | 1.68 | 0.00 | 96 | 1017.3 |
| 20260510133522 | 21 | 48 | 4.8 | 8.0 | 0.00 | 1.68 | 0.00 | 97 | 1017.1 |
| 20260510132522 | 21 | 87 | 8.0 | 12.9 | 0.00 | 1.68 | 0.00 | 98 | 1017.1 |
| 20260510131521 | 20 | 47 | 8.0 | 12.9 | 0.00 | 1.68 | 0.00 | 98 | 1017.1 |
| 20260510130526 | 20 | 47 | 6.4 | 9.7 | 0.00 | 1.68 | 0.00 | 99 | 1016.9 |
| 20260510125524 | 20 | 64 | 6.4 | 12.9 | 0.00 | 1.68 | 0.00 | 99 | 1016.7 |
| 20260510124558 | 20 | 35 | 11.3 | 20.9 | 0.00 | 1.68 | 0.00 | 99 | 1016.6 |
| 20260510123523 | 20 | 61 | 4.8 | 12.9 | 0.00 | 1.68 | 0.00 | 99 | 1016.4 |
| 20260510122522 | 20 | 31 | 9.7 | 16.1 | 0.00 | 1.68 | 0.00 | 99 | 1016.3 |
| 20260510121547 | 20 | 10 | 6.4 | 8.0 | 0.00 | 1.68 | 0.00 | 99 | 1016.1 |
| 20260510120523 | 19 | 305 | 8.0 | 12.9 | 0.00 | 1.68 | 0.00 | 99 | 1016.1 |
| 20260510115523 | 19 | 338 | 3.2 | 6.4 | 0.00 | 1.68 | 0.00 | 99 | 1015.9 |
| 20260510114523 | 19 | 355 | 4.8 | 6.4 | 0.00 | 1.68 | 0.00 | 99 | 1015.7 |
| 20260510113523 | 19 | 4 | 6.4 | 8.0 | 0.00 | 1.68 | 0.00 | 99 | 1015.6 |
| 20260510112523 | 19 | 4 | 4.8 | 6.4 | 0.00 | 1.68 | 0.00 | 99 | 1015.5 |
| 20260510111523 | 19 | 350 | 4.8 | 8.0 | 0.00 | 1.68 | 0.00 | 99 | 1015.4 |
| 20260510110524 | 19 | 23 | 14.5 | 22.5 | 0.00 | 1.68 | 0.00 | 99 | 1015.2 |
| 20260510105524 | 19 | 24 | 14.5 | 20.9 | 0.00 | 1.68 | 0.00 | 99 | 1015.1 |
| 20260510104524 | 19 | 26 | 14.5 | 22.5 | 0.00 | 1.68 | 0.00 | 99 | 1014.9 |
| 20260510103739 | 19 | 26 | 12.9 | 20.9 | 0.00 | 1.68 | 0.00 | 99 | 1014.8 |
| 20260510102524 | 19 | 54 | 8.0 | 14.5 | 0.00 | 1.68 | 0.00 | 99 | 1014.8 |
| 20260510101549 | 19 | 62 | 6.4 | 11.3 | 0.00 | 1.68 | 0.00 | 98 | 1014.8 |
| 20260510100524 | 19 | 65 | 4.8 | 9.7 | 0.00 | 1.68 | 0.00 | 98 | 1014.7 |
| 20260510095521 | 19 | 27 | 4.8 | 12.9 | 0.00 | 1.68 | 0.00 | 98 | 1014.7 |
| 20260510094549 | 20 | 19 | 6.4 | 16.1 | 0.00 | 1.68 | 0.00 | 98 | 1014.7 |
| 20260510093615 | 20 | 47 | 4.8 | 14.5 | 0.00 | 1.68 | 0.00 | 98 | 1014.5 |
| 20260510092525 | 20 | 51 | 6.4 | 16.1 | 0.00 | 1.68 | 0.00 | 98 | 1014.3 |
| 20260510091522 | 20 | 52 | 4.8 | 12.9 | 0.00 | 1.68 | 0.00 | 98 | 1014.2 |
| 20260510090522 | 20 | 73 | 4.8 | 9.7 | 0.00 | 1.68 | 0.00 | 98 | 1014.1 |
| 20260510085522 | 20 | 42 | 8.0 | 17.7 | 0.00 | 1.68 | 0.00 | 97 | 1013.8 |
| 20260510084550 | 21 | 37 | 9.7 | 16.1 | 0.00 | 1.68 | 0.00 | 98 | 1013.8 |
| 20260510083550 | 21 | 90 | 8.0 | 11.3 | 0.00 | 1.68 | 0.00 | 98 | 1013.5 |
| 20260510082522 | 21 | 104 | 9.7 | 12.9 | 0.00 | 1.70 | 0.00 | 98 | 1013.3 |
| 20260510081522 | 20 | 99 | 9.7 | 12.9 | 0.00 | 1.70 | 0.00 | 99 | 1013.2 |
| 20260510080523 | 20 | 98 | 8.0 | 11.3 | 0.00 | 1.70 | 0.00 | 99 | 1013.1 |
| 20260510075523 | 20 | 105 | 8.0 | 11.3 | 0.00 | 1.73 | 0.00 | 99 | 1013.1 |
| 20260510074523 | 20 | 76 | 6.4 | 9.7 | 0.00 | 1.78 | 0.00 | 99 | 1013.2 |
| 20260510073548 | 20 | 107 | 8.0 | 9.7 | 0.00 | 1.78 | 0.00 | 99 | 1013.3 |
| 20260510072523 | 20 | 76 | 6.4 | 17.7 | 0.00 | 1.80 | 0.00 | 99 | 1013.3 |
| 20260510071523 | 20 | 94 | 4.8 | 12.9 | 0.00 | 1.80 | 0.00 | 99 | 1013.5 |
| 20260510070523 | 20 | 353 | 12.9 | 16.1 | 0.00 | 1.80 | 0.00 | 98 | 1013.6 |
| 20260510065549 | 20 | 31 | 11.3 | 16.1 | 0.00 | 1.80 | 0.00 | 98 | 1013.5 |
| 20260510064524 | 20 | 29 | 11.3 | 16.1 | 0.00 | 1.80 | 0.00 | 98 | 1013.4 |
| 20260510063524 | 20 | 17 | 6.4 | 14.5 | 0.00 | 1.91 | 0.00 | 98 | 1013.5 |
| 20260510062534 | 20 | 56 | 4.8 | 14.5 | 0.00 | 1.91 | 0.00 | 98 | 1013.6 |
| 20260510061524 | 20 | 39 | 9.7 | 20.9 | 0.00 | 1.91 | 0.00 | 98 | 1013.7 |
| 20260510060522 | 20 | 25 | 11.3 | 19.3 | 0.00 | 1.91 | 0.00 | 98 | 1013.8 |
| 20260510055522 | 20 | 37 | 16.1 | 20.9 | 0.00 | 1.91 | 0.00 | 98 | 1014.0 |
| 20260510054528 | 20 | 344 | 6.4 | 9.7 | 0.00 | 1.91 | 0.00 | 98 | 1014.2 |
| 20260510053550 | 21 | 14 | 9.7 | 14.5 | 0.00 | 1.91 | 0.00 | 98 | 1014.2 |
| 20260510052525 | 21 | 38 | 6.4 | 14.5 | 0.00 | 1.91 | 0.00 | 98 | 1013.7 |
| 20260510051522 | 21 | 36 | 6.4 | 11.3 | 0.00 | 1.91 | 0.00 | 98 | 1013.7 |
| 20260510050522 | 21 | 98 | 9.7 | 12.9 | 0.00 | 1.91 | 0.00 | 98 | 1013.4 |
| 20260510045522 | 20 | 97 | 3.2 | 6.4 | 0.00 | 1.91 | 1.91 | 97 | 1013.8 |
| 20260510044526 | 20 | 63 | 6.4 | 14.5 | 0.00 | 1.91 | 1.91 | 97 | 1014.1 |
| 20260510043548 | 20 | 46 | 4.8 | 8.0 | 0.00 | 1.91 | 1.91 | 97 | 1014.3 |
| 20260510042548 | 20 | 15 | 4.8 | 9.7 | 0.00 | 1.91 | 1.91 | 97 | 1014.4 |
| 20260510041523 | 20 | 340 | 8.0 | 11.3 | 0.00 | 1.91 | 1.91 | 96 | 1014.4 |
| 20260510040523 | 20 | 29 | 11.3 | 14.5 | 0.00 | 1.91 | 1.91 | 96 | 1014.5 |
| 20260510035523 | 21 | 36 | 8.0 | 11.3 | 0.00 | 1.91 | 1.91 | 96 | 1014.8 |
| 20260510034523 | 21 | 31 | 9.7 | 11.3 | 0.00 | 1.93 | 1.91 | 95 | 1014.6 |
| 20260510033523 | 21 | 27 | 8.0 | 11.3 | 0.00 | 1.93 | 1.91 | 94 | 1014.5 |
| 20260510032523 | 21 | 31 | 6.4 | 8.0 | 0.00 | 1.93 | 1.91 | 93 | 1014.4 |
| 20260510031523 | 22 | 7 | 6.4 | 6.4 | 0.00 | 1.93 | 1.91 | 91 | 1014.4 |
| 20260510030549 | 22 | 102 | 3.2 | 4.8 | 0.00 | 1.93 | 1.91 | 91 | 1014.2 |
| 20260510025525 | 22 | 124 | 6.4 | 9.7 | 0.00 | 1.96 | 1.91 | 91 | 1014.0 |
| 20260510024614 | 22 | 106 | 6.4 | 9.7 | 0.00 | 1.96 | 1.91 | 92 | 1013.8 |
| 20260510023524 | 22 | 124 | 11.3 | 16.1 | 0.00 | 1.96 | 1.91 | 92 | 1013.6 |
| 20260510022521 | 22 | 129 | 11.3 | 14.5 | 0.00 | 1.98 | 1.91 | 91 | 1013.6 |
| 20260510021550 | 22 | 132 | 11.3 | 14.5 | 0.03 | 1.98 | 1.91 | 91 | 1013.7 |
| 20260510020524 | 22 | 139 | 11.3 | 12.9 | 0.03 | 2.01 | 1.91 | 91 | 1013.8 |
| 20260510015550 | 22 | 152 | 11.3 | 12.9 | 0.03 | 2.03 | 1.88 | 91 | 1014.1 |
| 20260510014522 | 22 | 153 | 9.7 | 11.3 | 0.00 | 2.03 | 1.88 | 91 | 1014.2 |
| 20260510013522 | 22 | 163 | 11.3 | 16.1 | 0.00 | 2.03 | 1.88 | 90 | 1014.1 |
| 20260510012525 | 22 | 166 | 9.7 | 12.9 | 0.00 | 2.03 | 1.88 | 90 | 1014.4 |
| 20260510011525 | 22 | 150 | 9.7 | 12.9 | 0.00 | 2.03 | 1.88 | 90 | 1014.4 |
| 20260510010522 | 22 | 149 | 12.9 | 19.3 | 0.00 | 2.03 | 1.88 | 89 | 1013.9 |
| 20260510005523 | 22 | 150 | 17.7 | 22.5 | 0.00 | 2.03 | 1.88 | 89 | 1013.4 |
| 20260510004523 | 22 | 144 | 17.7 | 22.5 | 0.00 | 2.03 | 1.88 | 89 | 1013.4 |
| 20260510003523 | 22 | 146 | 16.1 | 19.3 | 0.00 | 2.03 | 1.88 | 90 | 1013.3 |
| 20260510002523 | 21 | 137 | 14.5 | 17.7 | 0.00 | 2.08 | 1.88 | 91 | 1013.0 |
| 20260510001523 | 21 | 124 | 12.9 | 14.5 | 0.00 | 2.13 | 1.88 | 91 | 1013.2 |
| 20260510000548 | 21 | 115 | 11.3 | 14.5 | 0.03 | 2.21 | 1.88 | 92 | 1013.1 |
| 20260509235549 | 21 | 86 | 4.8 | 6.4 | 0.03 | 2.26 | 1.88 | 94 | 1013.2 |
| 20260509234523 | 21 | 68 | 3.2 | 6.4 | 0.03 | 2.26 | 1.88 | 93 | 1013.4 |
| 20260509233523 | 21 | 83 | 1.6 | 4.8 | 0.03 | 2.29 | 1.88 | 94 | 1013.4 |
| 20260509232523 | 21 | 3 | 3.2 | 6.4 | 0.03 | 2.29 | 1.88 | 93 | 1013.4 |
| 20260509231524 | 21 | 77 | 6.4 | 8.0 | 0.00 | 2.29 | 1.85 | 92 | 1013.2 |